sensor_id;sensor_type;location;lat;lon;timestamp;pressure;altitude;pressure_sealevel;temperature;humidity
29903;BME280;30288;50.514;9.678;2023-04-28T00:00:16;98649.50;;;7.47;100.00
29903;BME280;30288;50.514;9.678;2023-04-28T00:02:21;98645.97;;;7.58;100.00
29903;BME280;30288;50.514;9.678;2023-04-28T00:04:28;98638.53;;;7.53;100.00
29903;BME280;30288;50.514;9.678;2023-04-28T00:06:33;98640.22;;;7.51;100.00
29903;BME280;30288;50.514;9.678;2023-04-28T00:08:38;98631.78;;;7.57;100.00
29903;BME280;30288;50.514;9.678;2023-04-28T00:10:46;98642.75;;;7.51;100.00
29903;BME280;30288;50.514;9.678;2023-04-28T00:12:51;98639.47;;;7.47;100.00
29903;BME280;30288;50.514;9.678;2023-04-28T00:14:56;98618.56;;;7.50;100.00
29903;BME280;30288;50.514;9.678;2023-04-28T00:17:01;98625.16;;;7.54;100.00
29903;BME280;30288;50.514;9.678;2023-04-28T00:19:06;98630.22;;;7.51;100.00
29903;BME280;30288;50.514;9.678;2023-04-28T00:21:11;98626.84;;;7.52;100.00
29903;BME280;30288;50.514;9.678;2023-04-28T00:23:16;98639.44;;;7.51;100.00
29903;BME280;30288;50.514;9.678;2023-04-28T00:25:21;98627.66;;;7.54;100.00
29903;BME280;30288;50.514;9.678;2023-04-28T00:27:29;98616.81;;;7.55;100.00
29903;BME280;30288;50.514;9.678;2023-04-28T00:29:36;98611.66;;;7.61;100.00
29903;BME280;30288;50.514;9.678;2023-04-28T00:31:41;98610.81;;;7.62;100.00
29903;BME280;30288;50.514;9.678;2023-04-28T00:33:46;98603.28;;;7.64;100.00
29903;BME280;30288;50.514;9.678;2023-04-28T00:35:58;98598.28;;;7.62;100.00
29903;BME280;30288;50.514;9.678;2023-04-28T00:38:05;98598.34;;;7.59;100.00
29903;BME280;30288;50.514;9.678;2023-04-28T00:40:11;98594.84;;;7.66;100.00
29903;BME280;30288;50.514;9.678;2023-04-28T00:42:16;98589.06;;;7.64;100.00
29903;BME280;30288;50.514;9.678;2023-04-28T00:44:24;98581.66;;;7.58;100.00
29903;BME280;30288;50.514;9.678;2023-04-28T00:46:30;98580.00;;;7.57;100.00
29903;BME280;30288;50.514;9.678;2023-04-28T00:48:37;98577.56;;;7.54;100.00
29903;BME280;30288;50.514;9.678;2023-04-28T00:50:43;98575.09;;;7.51;100.00
29903;BME280;30288;50.514;9.678;2023-04-28T00:52:48;98573.47;;;7.50;100.00
29903;BME280;30288;50.514;9.678;2023-04-28T00:54:54;98581.81;;;7.49;100.00
29903;BME280;30288;50.514;9.678;2023-04-28T00:56:59;98584.25;;;7.52;100.00
29903;BME280;30288;50.514;9.678;2023-04-28T00:59:06;98582.47;;;7.60;100.00
29903;BME280;30288;50.514;9.678;2023-04-28T01:01:14;98575.72;;;7.64;100.00
29903;BME280;30288;50.514;9.678;2023-04-28T01:03:19;98577.44;;;7.60;100.00
29903;BME280;30288;50.514;9.678;2023-04-28T01:05:25;98570.78;;;7.59;100.00
29903;BME280;30288;50.514;9.678;2023-04-28T01:07:31;98570.81;;;7.56;100.00
29903;BME280;30288;50.514;9.678;2023-04-28T01:09:38;98571.63;;;7.58;100.00
29903;BME280;30288;50.514;9.678;2023-04-28T01:11:44;98569.97;;;7.57;100.00
29903;BME280;30288;50.514;9.678;2023-04-28T01:14:00;98566.53;;;7.61;100.00
29903;BME280;30288;50.514;9.678;2023-04-28T01:16:10;98566.50;;;7.64;100.00
29903;BME280;30288;50.514;9.678;2023-04-28T01:18:18;98564.00;;;7.64;100.00
29903;BME280;30288;50.514;9.678;2023-04-28T01:20:23;98562.28;;;7.66;100.00
29903;BME280;30288;50.514;9.678;2023-04-28T01:22:28;98559.78;;;7.66;100.00
29903;BME280;30288;50.514;9.678;2023-04-28T01:24:36;98556.41;;;7.67;100.00
29903;BME280;30288;50.514;9.678;2023-04-28T01:26:43;98556.41;;;7.67;100.00
29903;BME280;30288;50.514;9.678;2023-04-28T01:28:48;98553.09;;;7.67;100.00
29903;BME280;30288;50.514;9.678;2023-04-28T01:30:54;98561.34;;;7.70;100.00
29903;BME280;30288;50.514;9.678;2023-04-28T01:32:59;98549.63;;;7.72;100.00
29903;BME280;30288;50.514;9.678;2023-04-28T01:35:05;98564.59;;;7.75;100.00
29903;BME280;30288;50.514;9.678;2023-04-28T01:37:11;98564.69;;;7.72;100.00
29903;BME280;30288;50.514;9.678;2023-04-28T01:39:16;98552.94;;;7.74;100.00
29903;BME280;30288;50.514;9.678;2023-04-28T01:41:24;98552.69;;;7.86;100.00
29903;BME280;30288;50.514;9.678;2023-04-28T01:43:29;98555.28;;;7.82;100.00
29903;BME280;30288;50.514;9.678;2023-04-28T01:45:34;98549.56;;;7.75;100.00
29903;BME280;30288;50.514;9.678;2023-04-28T01:47:40;98543.78;;;7.72;100.00
29903;BME280;30288;50.514;9.678;2023-04-28T01:49:47;98540.44;;;7.73;100.00
29903;BME280;30288;50.514;9.678;2023-04-28T01:51:52;98542.94;;;7.74;100.00
29903;BME280;30288;50.514;9.678;2023-04-28T01:53:57;98539.50;;;7.78;100.00
29903;BME280;30288;50.514;9.678;2023-04-28T01:56:04;98542.13;;;7.71;100.00
29903;BME280;30288;50.514;9.678;2023-04-28T01:58:12;98536.47;;;7.61;100.00
29903;BME280;30288;50.514;9.678;2023-04-28T02:00:19;98533.13;;;7.62;100.00
29903;BME280;30288;50.514;9.678;2023-04-28T02:02:25;98530.63;;;7.61;100.00
29903;BME280;30288;50.514;9.678;2023-04-28T02:04:31;98527.34;;;7.60;100.00
29903;BME280;30288;50.514;9.678;2023-04-28T02:06:37;98524.81;;;7.60;100.00
29903;BME280;30288;50.514;9.678;2023-04-28T02:08:42;98518.09;;;7.62;100.00
29903;BME280;30288;50.514;9.678;2023-04-28T02:10:48;98522.25;;;7.63;100.00
29903;BME280;30288;50.514;9.678;2023-04-28T02:12:53;98526.53;;;7.58;100.00
29903;BME280;30288;50.514;9.678;2023-04-28T02:15:01;98514.84;;;7.57;100.00
29903;BME280;30288;50.514;9.678;2023-04-28T02:17:06;98514.91;;;7.54;100.00
29903;BME280;30288;50.514;9.678;2023-04-28T02:19:11;98504.91;;;7.53;100.00
29903;BME280;30288;50.514;9.678;2023-04-28T02:21:17;98506.53;;;7.55;100.00
29903;BME280;30288;50.514;9.678;2023-04-28T02:23:22;98505.75;;;7.52;100.00
29903;BME280;30288;50.514;9.678;2023-04-28T02:25:27;98499.13;;;7.51;100.00
29903;BME280;30288;50.514;9.678;2023-04-28T02:27:35;98494.91;;;7.51;100.00
29903;BME280;30288;50.514;9.678;2023-04-28T02:29:40;98489.97;;;7.48;100.00
29903;BME280;30288;50.514;9.678;2023-04-28T02:31:48;98499.13;;;7.49;100.00
29903;BME280;30288;50.514;9.678;2023-04-28T02:33:53;98495.88;;;7.45;100.00
29903;BME280;30288;50.514;9.678;2023-04-28T02:35:59;98489.25;;;7.41;100.00
29903;BME280;30288;50.514;9.678;2023-04-28T02:38:04;98482.56;;;7.42;100.00
29903;BME280;30288;50.514;9.678;2023-04-28T02:40:12;98490.13;;;7.39;100.00
29903;BME280;30288;50.514;9.678;2023-04-28T02:42:17;98487.72;;;7.36;100.00
29903;BME280;30288;50.514;9.678;2023-04-28T02:44:23;98482.59;;;7.40;100.00
29903;BME280;30288;50.514;9.678;2023-04-28T02:46:28;98475.03;;;7.42;100.00
29903;BME280;30288;50.514;9.678;2023-04-28T02:48:36;98476.72;;;7.41;100.00
29903;BME280;30288;50.514;9.678;2023-04-28T02:50:42;98472.59;;;7.39;100.00
29903;BME280;30288;50.514;9.678;2023-04-28T02:52:47;98475.00;;;7.45;100.00
29903;BME280;30288;50.514;9.678;2023-04-28T02:54:52;98471.63;;;7.46;100.00
29903;BME280;30288;50.514;9.678;2023-04-28T02:57:00;98473.22;;;7.50;100.00
29903;BME280;30288;50.514;9.678;2023-04-28T02:59:06;98475.69;;;7.52;100.00
29903;BME280;30288;50.514;9.678;2023-04-28T03:01:11;98465.66;;;7.53;100.00
29903;BME280;30288;50.514;9.678;2023-04-28T03:03:16;98462.31;;;7.53;100.00
29903;BME280;30288;50.514;9.678;2023-04-28T03:05:24;98458.19;;;7.50;100.00
29903;BME280;30288;50.514;9.678;2023-04-28T03:07:30;98454.78;;;7.54;100.00
29903;BME280;30288;50.514;9.678;2023-04-28T03:09:35;98449.66;;;7.60;100.00
29903;BME280;30288;50.514;9.678;2023-04-28T03:11:43;98446.22;;;7.64;100.00
29903;BME280;30288;50.514;9.678;2023-04-28T03:13:48;98449.50;;;7.66;100.00
29903;BME280;30288;50.514;9.678;2023-04-28T03:15:55;98442.78;;;7.68;100.00
29903;BME280;30288;50.514;9.678;2023-04-28T03:18:02;98447.06;;;7.63;100.00
29903;BME280;30288;50.514;9.678;2023-04-28T03:20:09;98447.16;;;7.59;100.00
29903;BME280;30288;50.514;9.678;2023-04-28T03:22:17;98446.53;;;7.49;100.00
29903;BME280;30288;50.514;9.678;2023-04-28T03:24:23;98446.53;;;7.49;100.00
29903;BME280;30288;50.514;9.678;2023-04-28T03:26:28;98441.44;;;7.52;100.00
29903;BME280;30288;50.514;9.678;2023-04-28T03:28:34;98442.81;;;7.65;100.00
29903;BME280;30288;50.514;9.678;2023-04-28T03:30:39;98440.94;;;7.76;100.00
29903;BME280;30288;50.514;9.678;2023-04-28T03:32:44;98435.91;;;7.76;100.00
29903;BME280;30288;50.514;9.678;2023-04-28T03:34:50;98436.03;;;7.70;100.00
29903;BME280;30288;50.514;9.678;2023-04-28T03:36:55;98435.16;;;7.73;100.00
29903;BME280;30288;50.514;9.678;2023-04-28T03:39:06;98427.63;;;7.74;100.00
29903;BME280;30288;50.514;9.678;2023-04-28T03:41:11;98426.00;;;7.70;100.00
29903;BME280;30288;50.514;9.678;2023-04-28T03:43:36;98425.97;;;7.73;100.00
29903;BME280;30288;50.514;9.678;2023-04-28T03:45:50;98424.31;;;7.72;100.00
29903;BME280;30288;50.514;9.678;2023-04-28T03:47:56;98426.84;;;7.71;100.00
29903;BME280;30288;50.514;9.678;2023-04-28T03:50:01;98422.66;;;7.71;100.00
29903;BME280;30288;50.514;9.678;2023-04-28T03:52:06;98427.66;;;7.71;100.00
29903;BME280;30288;50.514;9.678;2023-04-28T03:54:14;98419.22;;;7.75;100.00
29903;BME280;30288;50.514;9.678;2023-04-28T03:56:20;98421.00;;;7.70;100.00
29903;BME280;30288;50.514;9.678;2023-04-28T03:58:25;98421.81;;;7.71;100.00
29903;BME280;30288;50.514;9.678;2023-04-28T04:00:31;98418.50;;;7.70;100.00
29903;BME280;30288;50.514;9.678;2023-04-28T04:02:36;98422.44;;;7.80;100.00
29903;BME280;30288;50.514;9.678;2023-04-28T04:04:42;98419.94;;;7.80;100.00
29903;BME280;30288;50.514;9.678;2023-04-28T04:06:48;98410.72;;;7.82;100.00
29903;BME280;30288;50.514;9.678;2023-04-28T04:08:54;98413.97;;;7.87;100.00
29903;BME280;30288;50.514;9.678;2023-04-28T04:11:02;98397.25;;;7.86;100.00
29903;BME280;30288;50.514;9.678;2023-04-28T04:13:07;98402.34;;;7.83;100.00
29903;BME280;30288;50.514;9.678;2023-04-28T04:15:13;98409.19;;;7.75;100.00
29903;BME280;30288;50.514;9.678;2023-04-28T04:17:20;98406.63;;;7.78;100.00
29903;BME280;30288;50.514;9.678;2023-04-28T04:19:26;98407.41;;;7.80;100.00
29903;BME280;30288;50.514;9.678;2023-04-28T04:21:31;98402.44;;;7.79;100.00
29903;BME280;30288;50.514;9.678;2023-04-28T04:23:37;98405.06;;;7.74;100.00
29903;BME280;30288;50.514;9.678;2023-04-28T04:25:42;98406.59;;;7.80;100.00
29903;BME280;30288;50.514;9.678;2023-04-28T04:27:50;98399.88;;;7.80;100.00
29903;BME280;30288;50.514;9.678;2023-04-28T04:29:55;98393.94;;;7.84;100.00
29903;BME280;30288;50.514;9.678;2023-04-28T04:32:01;98390.53;;;7.88;100.00
29903;BME280;30288;50.514;9.678;2023-04-28T04:34:07;98394.75;;;7.86;100.00
29903;BME280;30288;50.514;9.678;2023-04-28T04:36:12;98398.97;;;7.84;100.00
29903;BME280;30288;50.514;9.678;2023-04-28T04:38:17;98394.66;;;7.91;100.00
29903;BME280;30288;50.514;9.678;2023-04-28T04:40:23;98400.56;;;7.88;100.00
29903;BME280;30288;50.514;9.678;2023-04-28T04:42:29;98400.34;;;7.98;100.00
29903;BME280;30288;50.514;9.678;2023-04-28T04:44:45;98398.69;;;7.97;100.00
29903;BME280;30288;50.514;9.678;2023-04-28T04:47:00;98392.84;;;7.98;100.00
29903;BME280;30288;50.514;9.678;2023-04-28T04:49:07;98407.16;;;7.93;100.00
29903;BME280;30288;50.514;9.678;2023-04-28T04:51:12;98408.84;;;7.90;100.00
29903;BME280;30288;50.514;9.678;2023-04-28T04:53:18;98412.09;;;7.96;100.00
29903;BME280;30288;50.514;9.678;2023-04-28T04:55:23;98414.84;;;8.22;100.00
29903;BME280;30288;50.514;9.678;2023-04-28T04:57:29;98409.75;;;8.25;100.00
29903;BME280;30288;50.514;9.678;2023-04-28T04:59:54;98420.50;;;8.31;100.00
29903;BME280;30288;50.514;9.678;2023-04-28T05:01:59;98422.19;;;8.28;100.00
29903;BME280;30288;50.514;9.678;2023-04-28T05:04:04;98425.78;;;8.18;100.00
29903;BME280;30288;50.514;9.678;2023-04-28T05:06:10;98424.19;;;8.15;100.00
29903;BME280;30288;50.514;9.678;2023-04-28T05:08:22;98428.59;;;8.06;100.00
29903;BME280;30288;50.514;9.678;2023-04-28T05:10:28;98427.78;;;8.04;100.00
29903;BME280;30288;50.514;9.678;2023-04-28T05:12:36;98433.72;;;8.00;100.00
29903;BME280;30288;50.514;9.678;2023-04-28T05:14:42;98415.44;;;7.95;100.00
29903;BME280;30288;50.514;9.678;2023-04-28T05:16:52;98428.84;;;7.93;100.00
29903;BME280;30288;50.514;9.678;2023-04-28T05:19:01;98427.25;;;7.89;100.00
29903;BME280;30288;50.514;9.678;2023-04-28T05:21:06;98427.22;;;7.93;100.00
29903;BME280;30288;50.514;9.678;2023-04-28T05:23:14;98422.13;;;7.96;100.00
29903;BME280;30288;50.514;9.678;2023-04-28T05:25:19;98422.91;;;7.98;100.00
29903;BME280;30288;50.514;9.678;2023-04-28T05:27:25;98417.03;;;7.99;100.00
29903;BME280;30288;50.514;9.678;2023-04-28T05:29:30;98420.34;;;8.01;100.00
29903;BME280;30288;50.514;9.678;2023-04-28T05:31:35;98428.72;;;8.00;100.00
29903;BME280;30288;50.514;9.678;2023-04-28T05:33:43;98433.69;;;8.03;100.00
29903;BME280;30288;50.514;9.678;2023-04-28T05:35:49;98426.88;;;8.08;100.00
29903;BME280;30288;50.514;9.678;2023-04-28T05:37:54;98418.47;;;8.09;100.00
29903;BME280;30288;50.514;9.678;2023-04-28T05:39:59;98408.31;;;8.15;100.00
29903;BME280;30288;50.514;9.678;2023-04-28T05:42:06;98407.44;;;8.16;100.00
29903;BME280;30288;50.514;9.678;2023-04-28T05:44:11;98410.81;;;8.15;100.00
29903;BME280;30288;50.514;9.678;2023-04-28T05:46:19;98411.53;;;8.20;100.00
29903;BME280;30288;50.514;9.678;2023-04-28T05:48:33;98413.19;;;8.21;100.00
29903;BME280;30288;50.514;9.678;2023-04-28T05:50:41;98403.16;;;8.21;100.00
29903;BME280;30288;50.514;9.678;2023-04-28T05:52:47;98406.50;;;8.20;100.00
29903;BME280;30288;50.514;9.678;2023-04-28T05:54:55;98401.50;;;8.20;100.00
29903;BME280;30288;50.514;9.678;2023-04-28T05:57:01;98403.81;;;8.27;100.00
29903;BME280;30288;50.514;9.678;2023-04-28T05:59:06;98394.59;;;8.31;100.00
29903;BME280;30288;50.514;9.678;2023-04-28T06:01:13;98391.13;;;8.35;100.00
29903;BME280;30288;50.514;9.678;2023-04-28T06:03:18;98390.97;;;8.41;100.00
29903;BME280;30288;50.514;9.678;2023-04-28T06:05:25;98391.03;;;8.38;100.00
29903;BME280;30288;50.514;9.678;2023-04-28T06:07:34;98395.00;;;8.47;100.00
29903;BME280;30288;50.514;9.678;2023-04-28T06:09:39;98397.25;;;8.57;100.00
29903;BME280;30288;50.514;9.678;2023-04-28T06:11:44;98394.03;;;8.52;100.00
29903;BME280;30288;50.514;9.678;2023-04-28T06:13:50;98399.66;;;8.62;100.00
29903;BME280;30288;50.514;9.678;2023-04-28T06:15:56;98395.31;;;8.68;100.00
29903;BME280;30288;50.514;9.678;2023-04-28T06:18:01;98400.31;;;8.68;100.00
29903;BME280;30288;50.514;9.678;2023-04-28T06:20:09;98400.72;;;8.84;100.00
29903;BME280;30288;50.514;9.678;2023-04-28T06:22:15;98400.59;;;8.89;100.00
29903;BME280;30288;50.514;9.678;2023-04-28T06:24:23;98403.81;;;8.94;100.00
29903;BME280;30288;50.514;9.678;2023-04-28T06:26:31;98401.25;;;8.97;100.00
29903;BME280;30288;50.514;9.678;2023-04-28T06:28:37;98396.72;;;9.09;100.00
29903;BME280;30288;50.514;9.678;2023-04-28T06:30:43;98395.69;;;9.16;100.00
29903;BME280;30288;50.514;9.678;2023-04-28T06:32:48;98397.03;;;9.28;100.00
29903;BME280;30288;50.514;9.678;2023-04-28T06:34:54;98397.03;;;9.28;100.00
29903;BME280;30288;50.514;9.678;2023-04-28T06:37:01;98398.50;;;9.35;100.00
29903;BME280;30288;50.514;9.678;2023-04-28T06:39:06;98398.53;;;9.34;100.00
29903;BME280;30288;50.514;9.678;2023-04-28T06:41:14;98401.88;;;9.34;100.00
29903;BME280;30288;50.514;9.678;2023-04-28T06:43:23;98404.34;;;9.36;100.00
29903;BME280;30288;50.514;9.678;2023-04-28T06:45:40;98404.41;;;9.34;100.00
29903;BME280;30288;50.514;9.678;2023-04-28T06:47:45;98398.56;;;9.32;100.00
29903;BME280;30288;50.514;9.678;2023-04-28T06:49:51;98404.41;;;9.34;100.00
29903;BME280;30288;50.514;9.678;2023-04-28T06:51:56;98399.97;;;9.42;100.00
29903;BME280;30288;50.514;9.678;2023-04-28T06:54:04;98391.47;;;9.46;100.00
29903;BME280;30288;50.514;9.678;2023-04-28T06:56:10;98389.84;;;9.45;100.00
29903;BME280;30288;50.514;9.678;2023-04-28T06:58:17;98392.25;;;9.48;100.00
29903;BME280;30288;50.514;9.678;2023-04-28T07:00:23;98398.81;;;9.54;100.00
29903;BME280;30288;50.514;9.678;2023-04-28T07:02:29;98400.38;;;9.56;100.00
29903;BME280;30288;50.514;9.678;2023-04-28T07:04:34;98405.56;;;9.52;100.00
29903;BME280;30288;50.514;9.678;2023-04-28T07:06:41;98399.69;;;9.51;100.00
29903;BME280;30288;50.514;9.678;2023-04-28T07:08:47;98407.75;;;9.62;100.00
29903;BME280;30288;50.514;9.678;2023-04-28T07:10:54;98403.06;;;9.50;100.00
29903;BME280;30288;50.514;9.678;2023-04-28T07:12:59;98411.78;;;9.40;100.00
29903;BME280;30288;50.514;9.678;2023-04-28T07:15:08;98405.56;;;9.52;100.00
29903;BME280;30288;50.514;9.678;2023-04-28T07:17:14;98402.00;;;9.59;100.00
29903;BME280;30288;50.514;9.678;2023-04-28T07:19:19;98391.59;;;9.70;100.00
29903;BME280;30288;50.514;9.678;2023-04-28T07:21:24;98377.69;;;9.87;100.00
29903;BME280;30288;50.514;9.678;2023-04-28T07:23:30;98374.19;;;9.91;100.00
29903;BME280;30288;50.514;9.678;2023-04-28T07:25:35;98376.66;;;9.93;100.00
29903;BME280;30288;50.514;9.678;2023-04-28T07:27:42;98392.84;;;10.12;100.00
29903;BME280;30288;50.514;9.678;2023-04-28T07:29:48;98406.50;;;9.77;100.00
29903;BME280;30288;50.514;9.678;2023-04-28T07:31:56;98406.94;;;9.62;100.00
29903;BME280;30288;50.514;9.678;2023-04-28T07:34:02;98405.91;;;9.69;100.00
29903;BME280;30288;50.514;9.678;2023-04-28T07:36:07;98399.69;;;9.51;100.00
29903;BME280;30288;50.514;9.678;2023-04-28T07:38:13;98398.97;;;9.48;100.00
29903;BME280;30288;50.514;9.678;2023-04-28T07:40:20;98401.53;;;9.46;100.00
29903;BME280;30288;50.514;9.678;2023-04-28T07:42:26;98399.78;;;9.48;100.00
29903;BME280;30288;50.514;9.678;2023-04-28T07:44:31;98392.16;;;9.51;100.00
29903;BME280;30288;50.514;9.678;2023-04-28T07:46:37;98380.34;;;9.55;100.00
29903;BME280;30288;50.514;9.678;2023-04-28T07:48:45;98373.75;;;9.79;100.00
29903;BME280;30288;50.514;9.678;2023-04-28T07:50:50;98367.00;;;10.07;100.00
29903;BME280;30288;50.514;9.678;2023-04-28T07:52:57;98351.69;;;10.39;100.00
29903;BME280;30288;50.514;9.678;2023-04-28T07:55:03;98342.22;;;10.71;100.00
29903;BME280;30288;50.514;9.678;2023-04-28T07:57:09;98330.09;;;10.82;100.00
29903;BME280;30288;50.514;9.678;2023-04-28T07:59:14;98329.88;;;11.11;100.00
29903;BME280;30288;50.514;9.678;2023-04-28T08:01:20;98329.94;;;11.31;100.00
29903;BME280;30288;50.514;9.678;2023-04-28T08:03:25;98334.88;;;11.34;100.00
29903;BME280;30288;50.514;9.678;2023-04-28T08:05:33;98329.94;;;11.31;100.00
29903;BME280;30288;50.514;9.678;2023-04-28T08:07:39;98326.44;;;11.35;100.00
29903;BME280;30288;50.514;9.678;2023-04-28T08:09:44;98296.31;;;11.76;100.00
29903;BME280;30288;50.514;9.678;2023-04-28T08:11:51;98277.22;;;12.11;100.00
29903;BME280;30288;50.514;9.678;2023-04-28T08:13:56;98289.91;;;12.68;100.00
29903;BME280;30288;50.514;9.678;2023-04-28T08:16:05;98318.06;;;12.98;100.00
29903;BME280;30288;50.514;9.678;2023-04-28T08:18:11;98299.22;;;13.05;100.00
29903;BME280;30288;50.514;9.678;2023-04-28T08:20:16;98309.75;;;12.96;100.00
29903;BME280;30288;50.514;9.678;2023-04-28T08:22:28;98318.00;;;12.61;100.00
29903;BME280;30288;50.514;9.678;2023-04-28T08:24:33;98308.34;;;12.70;100.00
29903;BME280;30288;50.514;9.678;2023-04-28T08:26:39;98327.25;;;12.42;100.00
29903;BME280;30288;50.514;9.678;2023-04-28T08:28:44;98331.81;;;12.34;100.00
29903;BME280;30288;50.514;9.678;2023-04-28T08:30:49;98332.84;;;12.08;100.00
29903;BME280;30288;50.514;9.678;2023-04-28T08:32:57;98339.34;;;11.93;100.00
29903;BME280;30288;50.514;9.678;2023-04-28T08:35:02;98358.28;;;11.83;100.00
29903;BME280;30288;50.514;9.678;2023-04-28T08:37:07;98350.25;;;11.73;100.00
29903;BME280;30288;50.514;9.678;2023-04-28T08:39:15;98348.25;;;11.58;100.00
29903;BME280;30288;50.514;9.678;2023-04-28T08:41:21;98348.47;;;11.30;100.00
29903;BME280;30288;50.514;9.678;2023-04-28T08:43:27;98348.34;;;11.12;100.00
29903;BME280;30288;50.514;9.678;2023-04-28T08:45:40;98342.69;;;11.05;100.00
29903;BME280;30288;50.514;9.678;2023-04-28T08:47:48;98336.16;;;11.00;100.00
29903;BME280;30288;50.514;9.678;2023-04-28T08:50:00;98327.34;;;11.11;100.00
29903;BME280;30288;50.514;9.678;2023-04-28T08:52:10;98333.44;;;11.27;100.00
29903;BME280;30288;50.514;9.678;2023-04-28T08:54:19;98333.88;;;11.38;100.00
29903;BME280;30288;50.514;9.678;2023-04-28T08:56:31;98334.19;;;11.53;100.00
29903;BME280;30288;50.514;9.678;2023-04-28T08:58:39;98339.88;;;11.58;100.00
29903;BME280;30288;50.514;9.678;2023-04-28T09:00:44;98349.09;;;11.59;100.00
29903;BME280;30288;50.514;9.678;2023-04-28T09:02:49;98349.41;;;11.73;100.00
29903;BME280;30288;50.514;9.678;2023-04-28T09:04:55;98350.16;;;11.75;100.00
29903;BME280;30288;50.514;9.678;2023-04-28T09:07:00;98346.28;;;11.88;100.00
29903;BME280;30288;50.514;9.678;2023-04-28T09:09:23;98338.50;;;11.71;100.00
29903;BME280;30288;50.514;9.678;2023-04-28T09:11:30;98348.59;;;11.71;100.00
29903;BME280;30288;50.514;9.678;2023-04-28T09:13:36;98347.22;;;11.64;100.00
29903;BME280;30288;50.514;9.678;2023-04-28T09:15:41;98339.09;;;11.56;100.00
29903;BME280;30288;50.514;9.678;2023-04-28T09:17:47;98335.25;;;11.69;100.00
29903;BME280;30288;50.514;9.678;2023-04-28T09:19:53;98329.47;;;11.65;100.00
29903;BME280;30288;50.514;9.678;2023-04-28T09:21:58;98342.53;;;11.76;100.00
29903;BME280;30288;50.514;9.678;2023-04-28T09:24:34;98324.19;;;11.93;100.00
29903;BME280;30288;50.514;9.678;2023-04-28T09:26:48;98328.63;;;12.08;100.00
29903;BME280;30288;50.514;9.678;2023-04-28T09:29:11;98329.28;;;12.34;100.00
29903;BME280;30288;50.514;9.678;2023-04-28T09:31:23;98331.28;;;12.46;100.00
29903;BME280;30288;50.514;9.678;2023-04-28T09:33:30;98324.31;;;12.71;100.00
29903;BME280;30288;50.514;9.678;2023-04-28T09:35:40;98328.72;;;12.86;100.00
29903;BME280;30288;50.514;9.678;2023-04-28T09:37:46;98331.19;;;13.06;100.00
29903;BME280;30288;50.514;9.678;2023-04-28T09:39:54;98335.06;;;13.15;100.00
29903;BME280;30288;50.514;9.678;2023-04-28T09:42:00;98330.94;;;13.12;100.00
29903;BME280;30288;50.514;9.678;2023-04-28T09:44:13;98332.28;;;13.01;100.00
29903;BME280;30288;50.514;9.678;2023-04-28T09:46:28;98328.75;;;13.24;100.00
29903;BME280;30288;50.514;9.678;2023-04-28T09:48:35;98327.94;;;13.23;100.00
29903;BME280;30288;50.514;9.678;2023-04-28T09:50:40;98314.94;;;13.31;100.00
29903;BME280;30288;50.514;9.678;2023-04-28T09:52:55;98325.34;;;13.25;100.00
29903;BME280;30288;50.514;9.678;2023-04-28T09:55:06;98323.97;;;13.18;100.00
29903;BME280;30288;50.514;9.678;2023-04-28T09:57:13;98330.00;;;13.34;100.00
29903;BME280;30288;50.514;9.678;2023-04-28T09:59:19;98318.38;;;13.30;100.00
29903;BME280;30288;50.514;9.678;2023-04-28T10:01:25;98324.94;;;13.34;100.00
29903;BME280;30288;50.514;9.678;2023-04-28T10:03:31;98317.97;;;13.56;100.00
29903;BME280;30288;50.514;9.678;2023-04-28T10:05:36;98320.09;;;13.65;100.00
29903;BME280;30288;50.514;9.678;2023-04-28T10:07:42;98319.53;;;13.77;100.00
29903;BME280;30288;50.514;9.678;2023-04-28T10:09:48;98310.75;;;14.19;100.00
29903;BME280;30288;50.514;9.678;2023-04-28T10:11:57;98322.19;;;14.26;100.00
29903;BME280;30288;50.514;9.678;2023-04-28T10:14:02;98314.94;;;14.37;100.00
29903;BME280;30288;50.514;9.678;2023-04-28T10:16:08;98306.94;;;14.44;100.00
29903;BME280;30288;50.514;9.678;2023-04-28T10:18:15;98313.03;;;13.89;100.00
29903;BME280;30288;50.514;9.678;2023-04-28T10:20:21;98314.53;;;13.76;100.00
29903;BME280;30288;50.514;9.678;2023-04-28T10:22:45;98304.78;;;13.68;100.00
29903;BME280;30288;50.514;9.678;2023-04-28T10:25:23;98302.72;;;14.11;100.00
29903;BME280;30288;50.514;9.678;2023-04-28T10:27:32;98303.25;;;14.67;100.00
29903;BME280;30288;50.514;9.678;2023-04-28T10:29:38;98301.41;;;15.02;100.00
29903;BME280;30288;50.514;9.678;2023-04-28T10:32:20;98297.41;;;15.14;100.00
29903;BME280;30288;50.514;9.678;2023-04-28T10:34:27;98301.50;;;15.01;100.00
29903;BME280;30288;50.514;9.678;2023-04-28T10:36:49;98294.47;;;15.06;100.00
29903;BME280;30288;50.514;9.678;2023-04-28T10:39:10;98291.16;;;15.35;100.00
29903;BME280;30288;50.514;9.678;2023-04-28T10:41:31;98294.13;;;15.27;100.00
29903;BME280;30288;50.514;9.678;2023-04-28T10:43:39;98293.63;;;15.21;100.00
29903;BME280;30288;50.514;9.678;2023-04-28T10:46:06;98298.72;;;15.05;100.00
29903;BME280;30288;50.514;9.678;2023-04-28T10:48:12;98297.81;;;14.91;100.00
29903;BME280;30288;50.514;9.678;2023-04-28T10:50:18;98298.00;;;14.70;100.00
29903;BME280;30288;50.514;9.678;2023-04-28T10:52:48;98293.88;;;14.52;100.00
29903;BME280;30288;50.514;9.678;2023-04-28T10:55:30;98295.00;;;14.47;100.00
29903;BME280;30288;50.514;9.678;2023-04-28T10:57:37;98294.50;;;14.40;100.00
29903;BME280;30288;50.514;9.678;2023-04-28T10:59:45;98290.53;;;14.52;100.00
29903;BME280;30288;50.514;9.678;2023-04-28T11:01:51;98289.00;;;14.49;100.00
29903;BME280;30288;50.514;9.678;2023-04-28T11:03:58;98288.69;;;14.38;100.00
29903;BME280;30288;50.514;9.678;2023-04-28T11:06:27;98290.13;;;14.59;100.00
29903;BME280;30288;50.514;9.678;2023-04-28T11:08:33;98290.47;;;14.53;100.00
29903;BME280;30288;50.514;9.678;2023-04-28T11:11:19;98296.44;;;14.35;100.00
29903;BME280;30288;50.514;9.678;2023-04-28T11:13:25;98289.72;;;14.34;100.00